Time;durP1;ratioP1;P1;durP2;ratioP2;P2;SDS_P1;SDS_P2;PMS_P1;PMS_P2;Temp;Humidity;BMP_temperature;BMP_pressure;BME280_temperature;BME280_humidity;BME280_pressure;Samples;Min_cycle;Max_cycle;Signal;HPM_P1;HPM_P2
2022/05/17 00:01:30;;;;;;;4.00;1.43;;;14.00;72.40;;;;;;4385519;28;657622;-66
2022/05/17 00:04:18;;;;;;;3.70;1.40;;;14.10;71.80;;;;;;4402690;28;658307;-67
2022/05/17 00:07:05;;;;;;;3.37;1.53;;;14.10;72.10;;;;;;4387593;28;657667;-66
2022/05/17 00:09:54;;;;;;;5.27;1.53;;;14.10;71.10;;;;;;4402820;28;658696;-66
2022/05/17 00:12:41;;;;;;;6.03;1.88;;;14.00;71.60;;;;;;4383255;28;658049;-66
2022/05/17 00:15:28;;;;;;;4.70;1.77;;;14.00;71.00;;;;;;4399350;28;657678;-66
2022/05/17 00:18:16;;;;;;;5.90;1.63;;;14.10;72.80;;;;;;4386645;28;657731;-66
2022/05/17 00:21:04;;;;;;;7.47;1.73;;;14.00;72.50;;;;;;4410600;28;657874;-67
2022/05/17 00:23:51;;;;;;;3.83;1.70;;;13.90;74.00;;;;;;4386945;28;658037;-66
2022/05/17 00:26:40;;;;;;;4.47;1.83;;;13.90;75.30;;;;;;4408200;28;659140;-66
2022/05/17 00:29:27;;;;;;;3.97;1.80;;;13.80;75.50;;;;;;4389785;28;659140;-66
2022/05/17 00:32:14;;;;;;;6.17;1.83;;;13.80;77.00;;;;;;4422926;28;657565;-67
2022/05/17 00:35:01;;;;;;;8.50;1.80;;;13.80;74.70;;;;;;4403681;28;658028;-66
2022/05/17 00:37:48;;;;;;;4.50;1.90;;;13.80;78.80;;;;;;4420317;28;658709;-67
2022/05/17 00:40:35;;;;;;;5.23;2.00;;;13.80;79.70;;;;;;4401507;28;658054;-66
2022/05/17 00:44:42;;;;;;;4.40;1.40;;;13.80;81.70;;;;;;4425274;28;659470;-67
2022/05/17 00:46:43;;;;;;;4.37;1.83;;;13.70;80.50;;;;;;4401577;28;657604;-66
2022/05/17 00:49:33;;;;;;;9.77;1.93;;;13.70;80.90;;;;;;4374907;28;657441;-66
2022/05/17 00:52:22;;;;;;;4.90;1.73;;;13.70;80.80;;;;;;4408445;28;658790;-66
2022/05/17 00:55:12;;;;;;;7.07;2.00;;;13.70;82.40;;;;;;4415550;28;657798;-66
2022/05/17 00:58:01;;;;;;;4.73;2.00;;;13.70;81.80;;;;;;4393922;28;658193;-66
2022/05/17 01:00:52;;;;;;;4.47;1.87;;;13.70;82.50;;;;;;4387009;28;658574;-66
2022/05/17 01:03:41;;;;;;;5.80;1.83;;;13.70;84.50;;;;;;4389289;28;657631;-66
2022/05/17 01:06:30;;;;;;;5.78;1.98;;;13.60;84.70;;;;;;4381888;28;658196;-66
2022/05/17 01:09:17;;;;;;;6.33;1.97;;;13.60;86.40;;;;;;4397874;28;658115;-66
2022/05/17 01:12:05;;;;;;;4.70;1.77;;;13.60;88.50;;;;;;4403008;28;657647;-66
2022/05/17 01:14:58;;;;;;;5.53;1.90;;;13.60;88.20;;;;;;4387303;28;658123;-66
2022/05/17 01:17:48;;;;;;;6.57;2.33;;;13.50;89.40;;;;;;4383043;28;658282;-67
2022/05/17 01:20:35;;;;;;;6.93;1.90;;;13.50;90.00;;;;;;4413929;28;657528;-66
2022/05/17 01:23:24;;;;;;;3.93;1.83;;;13.50;91.80;;;;;;4410257;28;658375;-67
2022/05/17 01:26:13;;;;;;;6.15;2.08;;;13.50;90.90;;;;;;4376705;28;657804;-66
2022/05/17 01:29:01;;;;;;;10.07;1.97;;;13.60;91.00;;;;;;4392608;28;657790;-66
2022/05/17 01:31:48;;;;;;;6.73;1.90;;;13.60;91.50;;;;;;4393898;28;659747;-66
2022/05/17 01:34:36;;;;;;;4.30;2.10;;;13.60;90.30;;;;;;4384762;28;658588;-66
2022/05/17 01:37:23;;;;;;;4.87;1.70;;;13.70;89.50;;;;;;4412983;28;657973;-67
2022/05/17 01:40:13;;;;;;;5.30;2.42;;;13.70;90.30;;;;;;4390749;28;657414;-66
2022/05/17 01:43:00;;;;;;;6.47;2.30;;;13.70;91.10;;;;;;4386454;28;657551;-66
2022/05/17 01:45:47;;;;;;;2.87;1.70;;;13.60;90.40;;;;;;4413543;28;658745;-66
2022/05/17 01:48:34;;;;;;;4.77;2.30;;;13.60;91.50;;;;;;4407797;28;658647;-66
2022/05/17 01:51:22;;;;;;;3.37;2.13;;;13.60;92.10;;;;;;4396184;28;658393;-66
2022/05/17 01:54:09;;;;;;;5.67;2.37;;;13.60;92.80;;;;;;4401849;28;658209;-66
2022/05/17 01:56:57;;;;;;;4.47;2.30;;;13.60;92.80;;;;;;4394380;28;657862;-66
2022/05/17 01:59:45;;;;;;;5.47;2.40;;;13.50;93.40;;;;;;4394373;28;658052;-66
2022/05/17 02:02:33;;;;;;;4.23;2.40;;;13.50;96.80;;;;;;4406052;28;658091;-67
2022/05/17 02:05:21;;;;;;;7.30;2.40;;;13.50;96.40;;;;;;4409566;28;657418;-66
2022/05/17 02:08:09;;;;;;;5.27;2.13;;;13.40;96.90;;;;;;4406745;28;659046;-67
2022/05/17 02:10:56;;;;;;;7.83;2.50;;;13.40;96.40;;;;;;4387585;28;657703;-66
2022/05/17 02:13:44;;;;;;;9.93;2.00;;;13.40;97.40;;;;;;4410240;28;658305;-66
2022/05/17 02:16:35;;;;;;;4.80;2.50;;;13.30;99.00;;;;;;4389874;28;658273;-66
2022/05/17 02:19:23;;;;;;;6.10;2.23;;;13.20;99.90;;;;;;4388158;28;658886;-66
2022/05/17 02:22:11;;;;;;;6.05;2.40;;;13.20;99.90;;;;;;4398381;28;657786;-66
2022/05/17 02:24:58;;;;;;;6.67;2.50;;;13.20;99.90;;;;;;4417972;28;657943;-67
2022/05/17 02:27:45;;;;;;;6.63;2.47;;;13.20;99.90;;;;;;4391157;28;658674;-66
2022/05/17 02:30:34;;;;;;;5.17;2.50;;;13.20;99.90;;;;;;4414642;28;658177;-67
2022/05/17 02:33:21;;;;;;;7.77;2.27;;;13.10;99.90;;;;;;4392131;28;658187;-66
2022/05/17 02:36:08;;;;;;;5.27;2.37;;;13.10;99.90;;;;;;4417080;28;659260;-67
2022/05/17 02:38:56;;;;;;;4.57;2.43;;;13.10;99.90;;;;;;4395430;28;657525;-66
2022/05/17 02:41:43;;;;;;;8.13;2.20;;;13.00;99.90;;;;;;4422537;28;659083;-66
2022/05/17 02:44:30;;;;;;;3.83;2.33;;;13.00;99.90;;;;;;4393773;28;658052;-65
2022/05/17 02:47:19;;;;;;;9.53;2.70;;;12.90;99.90;;;;;;4401402;28;658261;-66
2022/05/17 02:50:09;;;;;;;7.70;2.57;;;12.90;99.90;;;;;;4393775;28;657633;-66
2022/05/17 02:52:56;;;;;;;6.23;2.50;;;12.90;99.90;;;;;;4391844;28;658430;-66
2022/05/17 02:55:43;;;;;;;5.97;2.63;;;12.90;99.90;;;;;;4409399;28;658956;-66
2022/05/17 02:58:30;;;;;;;12.53;3.03;;;13.00;99.90;;;;;;4401510;28;659151;-66
2022/05/17 03:01:18;;;;;;;6.50;2.77;;;13.00;99.90;;;;;;4425154;28;660108;-66
2022/05/17 03:04:07;;;;;;;7.20;2.70;;;13.00;99.90;;;;;;4415749;28;657952;-66
2022/05/17 03:06:56;;;;;;;4.47;2.40;;;13.00;99.90;;;;;;4401551;28;657444;-66
2022/05/17 03:09:43;;;;;;;8.47;3.77;;;13.00;99.90;;;;;;4395408;28;659860;-66
2022/05/17 03:12:30;;;;;;;21.57;4.43;;;13.10;99.90;;;;;;4402476;28;657694;-66
2022/05/17 03:15:21;;;;;;;7.97;2.67;;;13.10;99.90;;;;;;4416130;28;659947;-66
2022/05/17 03:18:08;;;;;;;5.00;2.60;;;13.20;99.90;;;;;;4401950;28;658286;-66
2022/05/17 03:20:57;;;;;;;5.87;2.40;;;13.20;99.90;;;;;;4404042;28;657370;-66
2022/05/17 03:23:44;;;;;;;8.37;2.97;;;13.20;99.90;;;;;;4417591;28;657417;-66
2022/05/17 03:26:31;;;;;;;6.97;2.83;;;13.20;99.90;;;;;;4399977;28;657740;-66
2022/05/17 03:29:18;;;;;;;6.73;2.60;;;13.20;99.90;;;;;;4418556;28;657253;-66
2022/05/17 03:32:07;;;;;;;5.73;2.70;;;13.30;99.90;;;;;;4406432;28;657764;-65
2022/05/17 03:34:54;;;;;;;3.77;2.43;;;13.20;99.90;;;;;;4404364;28;658307;-66
2022/05/17 03:37:42;;;;;;;5.97;2.50;;;13.20;99.90;;;;;;4401773;28;657744;-65
2022/05/17 03:40:30;;;;;;;5.57;2.60;;;13.20;99.90;;;;;;4415218;28;658157;-66
2022/05/17 03:43:17;;;;;;;4.27;2.30;;;13.20;99.90;;;;;;4395032;28;659007;-66
2022/05/17 03:46:05;;;;;;;6.33;2.70;;;13.30;99.90;;;;;;4415331;28;658460;-66
2022/05/17 03:48:52;;;;;;;6.70;2.70;;;13.40;99.90;;;;;;4374563;28;660360;-66
2022/05/17 03:51:39;;;;;;;5.03;2.83;;;13.50;99.90;;;;;;4400420;28;658689;-66
2022/05/17 03:54:28;;;;;;;8.27;2.60;;;13.50;99.90;;;;;;4391179;28;659109;-66
2022/05/17 03:57:16;;;;;;;10.17;2.70;;;13.50;99.90;;;;;;4391898;28;657714;-66
2022/05/17 04:00:06;;;;;;;9.63;2.80;;;13.50;99.90;;;;;;4410422;28;660226;-66
2022/05/17 04:02:53;;;;;;;8.27;2.50;;;13.60;99.90;;;;;;4392325;28;658220;-66
2022/05/17 04:05:40;;;;;;;8.40;2.47;;;13.70;99.90;;;;;;4370659;28;658441;-66
2022/05/17 04:08:27;;;;;;;4.87;2.40;;;13.70;99.90;;;;;;4418204;28;659380;-66
2022/05/17 04:11:16;;;;;;;8.67;2.63;;;13.90;99.90;;;;;;4412292;28;657431;-66
2022/05/17 04:14:03;;;;;;;6.87;2.63;;;13.90;99.90;;;;;;4375731;28;658327;-66
2022/05/17 04:16:51;;;;;;;8.43;2.70;;;13.90;99.90;;;;;;4372924;28;658133;-66
2022/05/17 04:19:39;;;;;;;6.13;2.47;;;13.90;99.90;;;;;;4409305;28;658841;-66
2022/05/17 04:22:26;;;;;;;5.60;2.50;;;13.90;99.90;;;;;;4398930;28;658458;-66
2022/05/17 04:25:15;;;;;;;7.00;2.73;;;13.90;99.90;;;;;;4412050;28;658329;-66
2022/05/17 04:28:03;;;;;;;7.43;2.60;;;14.00;99.90;;;;;;4381726;28;658666;-66
2022/05/17 04:30:51;;;;;;;7.37;2.90;;;14.10;99.90;;;;;;4391645;28;657566;-66
2022/05/17 04:33:38;;;;;;;5.90;2.43;;;14.00;99.90;;;;;;4419602;28;658356;-66
2022/05/17 04:36:25;;;;;;;8.27;2.67;;;14.10;99.90;;;;;;4394642;28;658140;-66
2022/05/17 04:39:13;;;;;;;7.73;3.10;;;14.30;99.90;;;;;;4408347;28;659225;-66
2022/05/17 04:42:00;;;;;;;8.83;4.03;;;14.40;99.90;;;;;;4395781;28;661050;-66
2022/05/17 04:44:49;;;;;;;7.20;3.20;;;14.50;99.90;;;;;;4412020;28;658522;-67
2022/05/17 04:47:39;;;;;;;7.60;3.40;;;14.70;99.90;;;;;;4396362;28;657452;-66
2022/05/17 04:50:26;;;;;;;16.43;4.90;;;14.70;99.90;;;;;;4390113;28;657865;-66
2022/05/17 04:53:13;;;;;;;19.60;5.33;;;14.70;99.90;;;;;;4417348;28;659839;-66
2022/05/17 04:56:00;;;;;;;7.67;2.93;;;14.70;99.90;;;;;;4393885;28;658701;-66
2022/05/17 04:58:47;;;;;;;10.53;4.30;;;14.70;99.90;;;;;;4416902;28;658610;-66
2022/05/17 05:01:38;;;;;;;6.87;3.63;;;14.90;99.90;;;;;;4411904;28;659009;-66
2022/05/17 05:04:26;;;;;;;6.67;2.57;;;15.00;98.40;;;;;;4403173;28;658488;-66
2022/05/17 05:07:13;;;;;;;6.60;2.83;;;15.00;99.90;;;;;;4418799;28;658476;-66
2022/05/17 05:10:00;;;;;;;7.80;2.90;;;15.20;99.90;;;;;;4403054;28;658086;-67
2022/05/17 05:12:47;;;;;;;6.30;2.50;;;15.40;99.90;;;;;;4428332;28;658993;-67
2022/05/17 05:15:37;;;;;;;11.07;2.83;;;15.50;97.50;;;;;;4417964;28;657748;-66
2022/05/17 05:18:26;;;;;;;9.50;2.40;;;15.70;96.20;;;;;;4389876;28;659218;-66
2022/05/17 05:21:14;;;;;;;7.87;2.60;;;15.80;91.60;;;;;;4391111;28;658842;-66
2022/05/17 05:24:04;;;;;;;14.50;2.83;;;15.80;96.20;;;;;;4392070;28;657277;-66
2022/05/17 05:26:51;;;;;;;5.97;2.50;;;15.90;95.00;;;;;;4385741;28;659321;-66
2022/05/17 05:29:38;;;;;;;17.63;5.53;;;15.80;92.60;;;;;;4411613;28;658633;-66
2022/05/17 05:32:25;;;;;;;5.03;2.50;;;15.90;91.30;;;;;;4388927;28;658494;-66
2022/05/17 05:35:14;;;;;;;5.77;2.57;;;15.70;91.00;;;;;;4412047;28;658039;-66
2022/05/17 05:38:03;;;;;;;10.13;2.20;;;15.60;93.70;;;;;;4390275;28;657606;-66
2022/05/17 05:40:51;;;;;;;9.37;2.50;;;15.60;97.00;;;;;;4385737;28;659111;-66
2022/05/17 05:43:38;;;;;;;8.77;2.60;;;15.70;94.10;;;;;;4405468;28;658232;-66
2022/05/17 05:46:27;;;;;;;6.40;2.20;;;15.70;96.60;;;;;;4396671;28;657770;-66
2022/05/17 05:49:14;;;;;;;7.40;2.50;;;15.80;95.00;;;;;;4395899;28;657243;-66
2022/05/17 05:52:03;;;;;;;12.80;2.53;;;15.90;94.70;;;;;;4400575;28;658334;-66
2022/05/17 05:54:50;;;;;;;5.77;2.47;;;15.90;93.90;;;;;;4385411;28;658615;-66
2022/05/17 05:57:38;;;;;;;12.97;2.73;;;16.00;93.30;;;;;;4402897;28;658800;-66
2022/05/17 06:00:25;;;;;;;9.10;2.47;;;16.10;91.30;;;;;;4391712;28;658498;-66
2022/05/17 06:03:12;;;;;;;7.67;2.50;;;16.10;93.30;;;;;;4404668;28;659315;-66
2022/05/17 06:06:00;;;;;;;5.03;2.43;;;16.30;91.10;;;;;;4389420;28;657686;-66
2022/05/17 06:08:49;;;;;;;10.10;2.60;;;16.30;92.60;;;;;;4409901;28;658179;-67
2022/05/17 06:11:36;;;;;;;8.43;2.77;;;16.40;93.70;;;;;;4392593;28;658465;-67
2022/05/17 06:14:23;;;;;;;6.53;2.40;;;16.30;91.60;;;;;;4414117;28;658262;-67
2022/05/17 06:17:11;;;;;;;4.93;2.20;;;16.30;95.20;;;;;;4392110;28;657545;-66
2022/05/17 06:19:58;;;;;;;6.43;2.43;;;16.30;91.70;;;;;;4404995;28;658247;-67
2022/05/17 06:22:45;;;;;;;11.60;2.70;;;16.60;93.00;;;;;;4377375;28;658224;-66
2022/05/17 06:25:34;;;;;;;7.93;2.23;;;16.70;91.80;;;;;;4422412;28;659837;-67
2022/05/17 06:28:21;;;;;;;10.37;3.03;;;16.60;93.50;;;;;;4400015;28;657958;-67
2022/05/17 06:31:08;;;;;;;7.33;2.60;;;16.70;92.90;;;;;;4415850;28;660206;-66
2022/05/17 06:33:56;;;;;;;7.97;2.50;;;16.40;95.40;;;;;;4386904;28;658104;-67
2022/05/17 06:36:43;;;;;;;11.20;2.90;;;16.70;95.20;;;;;;4403924;28;658015;-67
2022/05/17 06:39:30;;;;;;;6.07;2.50;;;17.00;90.70;;;;;;4395702;28;659506;-67
2022/05/17 06:42:19;;;;;;;8.67;2.63;;;17.10;92.00;;;;;;4394453;28;658818;-66
2022/05/17 06:45:07;;;;;;;5.57;2.60;;;17.10;89.50;;;;;;4374730;28;658175;-67
2022/05/17 06:47:55;;;;;;;4.80;2.23;;;17.30;90.40;;;;;;4410981;28;657925;-67
2022/05/17 06:50:42;;;;;;;6.50;2.23;;;17.40;78.10;;;;;;4427739;28;658039;-66
2022/05/17 06:53:30;;;;;;;11.53;2.17;;;17.70;79.50;;;;;;4423483;28;658033;-67
2022/05/17 06:56:17;;;;;;;5.47;2.20;;;17.60;74.40;;;;;;4396651;28;660806;-66
2022/05/17 06:59:06;;;;;;;5.30;2.30;;;17.90;74.60;;;;;;4420808;28;658407;-67
2022/05/17 07:01:53;;;;;;;8.93;2.53;;;18.10;71.10;;;;;;4405622;28;658452;-66
2022/05/17 07:04:42;;;;;;;8.57;2.37;;;18.00;71.50;;;;;;4401898;28;657793;-66
2022/05/17 07:07:29;;;;;;;5.40;2.20;;;18.00;70.80;;;;;;4422549;28;657764;-66
2022/05/17 07:13:21;;;;;;;6.40;2.10;;;17.90;66.40;;;;;;4376491;28;658317;-67
2022/05/17 07:16:09;;;;;;;7.20;2.07;;;18.00;72.60;;;;;;4423243;28;659701;-67
2022/05/17 07:18:56;;;;;;;8.40;2.20;;;18.10;69.80;;;;;;4403943;28;659081;-66
2022/05/17 07:21:44;;;;;;;4.23;2.07;;;18.40;63.60;;;;;;4418669;28;657773;-67
2022/05/17 07:24:31;;;;;;;6.40;2.27;;;18.70;63.60;;;;;;4401043;28;659541;-66
2022/05/17 07:27:18;;;;;;;7.20;2.38;;;18.80;61.30;;;;;;4417785;28;658767;-67
2022/05/17 07:30:06;;;;;;;6.47;2.20;;;18.80;63.60;;;;;;4398367;28;657388;-67
2022/05/17 07:32:55;;;;;;;10.97;2.30;;;18.90;64.30;;;;;;4419867;28;658072;-67
2022/05/17 07:35:42;;;;;;;13.93;2.50;;;19.40;59.80;;;;;;4397126;28;659689;-67
2022/05/17 07:38:30;;;;;;;5.53;1.90;;;19.50;60.70;;;;;;4414947;28;658774;-67
2022/05/17 07:41:18;;;;;;;4.07;1.90;;;19.30;56.30;;;;;;4423791;28;658566;-67
2022/05/17 07:44:05;;;;;;;6.03;2.00;;;19.00;57.90;;;;;;4407002;28;658012;-67
2022/05/17 07:46:52;;;;;;;8.50;2.50;;;18.90;59.10;;;;;;4421622;28;658685;-67
2022/05/17 07:49:42;;;;;;;6.37;2.00;;;18.90;60.80;;;;;;4403795;28;657560;-67
2022/05/17 07:52:29;;;;;;;4.87;1.83;;;19.00;60.60;;;;;;4420639;28;658322;-67
2022/05/17 07:55:16;;;;;;;9.87;2.63;;;19.00;58.70;;;;;;4404977;28;657674;-67
2022/05/17 07:58:03;;;;;;;5.73;2.20;;;19.00;59.50;;;;;;4411469;28;659345;-67
2022/05/17 08:00:50;;;;;;;7.73;2.17;;;19.00;61.50;;;;;;4394495;28;658164;-66
2022/05/17 08:03:38;;;;;;;8.80;2.33;;;19.20;62.40;;;;;;4413493;28;659061;-67
2022/05/17 08:06:27;;;;;;;10.17;2.40;;;19.70;63.70;;;;;;4413585;28;657422;-67
2022/05/17 08:09:14;;;;;;;7.30;2.10;;;19.50;56.80;;;;;;4410384;28;659695;-67
2022/05/17 08:12:01;;;;;;;7.70;2.30;;;19.70;60.60;;;;;;4384623;28;657655;-67
2022/05/17 08:14:48;;;;;;;9.53;2.23;;;19.10;61.60;;;;;;4412432;28;658685;-67
2022/05/17 08:17:36;;;;;;;8.20;2.33;;;19.60;59.30;;;;;;4391531;28;657778;-66
2022/05/17 08:20:23;;;;;;;11.93;2.40;;;19.70;59.00;;;;;;4418736;28;659061;-67
2022/05/17 08:23:12;;;;;;;7.10;2.10;;;19.60;56.40;;;;;;4378673;28;658844;-66
2022/05/17 08:29:03;;;;;;;7.03;1.80;;;19.40;56.00;;;;;;4395922;28;659126;-67
2022/05/17 08:34:52;;;;;;;8.77;1.60;;;19.80;56.90;;;;;;4391904;28;658046;-67
2022/05/17 08:37:39;;;;;;;7.63;1.70;;;19.60;56.70;;;;;;4413236;28;657411;-67
2022/05/17 08:40:27;;;;;;;6.37;2.10;;;19.70;57.20;;;;;;4400960;28;657617;-66
2022/05/17 08:43:23;;;;;;;12.10;2.00;;;20.00;57.60;;;;;;4415923;28;657700;-67
2022/05/17 08:46:25;;;;;;;6.70;2.10;;;20.20;54.10;;;;;;4386765;28;659084;-66
2022/05/17 08:49:18;;;;;;;6.57;2.13;;;20.20;52.90;;;;;;4371970;28;658231;-67
2022/05/17 08:52:07;;;;;;;3.87;1.77;;;20.30;53.80;;;;;;4368780;28;657868;-66
2022/05/17 08:54:56;;;;;;;3.97;2.00;;;20.30;52.90;;;;;;4425468;28;657565;-67
2022/05/17 08:57:46;;;;;;;5.63;1.90;;;20.20;51.60;;;;;;4392581;28;658389;-66
2022/05/17 09:00:36;;;;;;;5.33;2.03;;;19.90;55.80;;;;;;4392094;28;659560;-67
2022/05/17 09:03:36;;;;;;;7.90;1.90;;;20.10;56.70;;;;;;4396331;28;657987;-67
2022/05/17 09:06:26;;;;;;;7.00;2.10;;;20.30;54.00;;;;;;4390672;28;658043;-67
2022/05/17 09:09:16;;;;;;;7.47;2.00;;;20.10;55.60;;;;;;4394850;28;658820;-67
2022/05/17 09:12:06;;;;;;;8.18;2.00;;;20.00;54.80;;;;;;4395768;28;658590;-67
2022/05/17 09:14:56;;;;;;;6.90;2.00;;;20.10;53.50;;;;;;4401479;28;659184;-67
2022/05/17 09:17:43;;;;;;;9.50;1.97;;;20.20;52.40;;;;;;4395402;28;658465;-67
2022/05/17 09:20:34;;;;;;;6.17;1.90;;;20.30;53.20;;;;;;4406826;28;657363;-67
2022/05/17 09:23:21;;;;;;;4.60;1.80;;;20.30;55.00;;;;;;4396733;28;657625;-67
2022/05/17 09:26:09;;;;;;;8.23;2.30;;;19.80;56.30;;;;;;4415925;28;657885;-67
2022/05/17 09:28:58;;;;;;;5.33;2.00;;;20.10;59.10;;;;;;4399256;28;658016;-67
2022/05/17 09:31:51;;;;;;;9.20;1.90;;;20.50;56.80;;;;;;4399945;28;657290;-66
2022/05/17 09:34:40;;;;;;;5.30;1.87;;;20.00;56.90;;;;;;4399773;28;658534;-67
2022/05/17 09:37:32;;;;;;;7.80;2.20;;;20.50;61.10;;;;;;4377350;28;658789;-67
2022/05/17 09:40:23;;;;;;;11.67;2.20;;;20.80;56.40;;;;;;4398235;28;657641;-67
2022/05/17 09:43:12;;;;;;;4.23;1.90;;;20.90;55.70;;;;;;4372577;28;658634;-67
2022/05/17 09:45:59;;;;;;;10.20;2.00;;;21.10;56.80;;;;;;4418350;28;659114;-67
2022/05/17 09:55:21;;;;;;;5.30;2.13;;;21.50;55.10;;;;;;4387109;28;658245;-67
2022/05/17 09:58:09;;;;;;;9.80;1.93;;;21.40;55.50;;;;;;4396266;28;657232;-67
2022/05/17 10:00:56;;;;;;;8.63;2.00;;;21.20;52.60;;;;;;4389034;28;657494;-67
2022/05/17 10:03:45;;;;;;;5.47;1.67;;;21.40;52.80;;;;;;4413678;28;657492;-67
2022/05/17 10:06:34;;;;;;;7.23;1.87;;;21.90;51.90;;;;;;4400685;28;659296;-67
2022/05/17 10:09:28;;;;;;;5.67;1.67;;;21.90;51.90;;;;;;4399362;28;657620;-67
2022/05/17 10:12:20;;;;;;;6.00;1.60;;;22.10;51.20;;;;;;4383417;28;658938;-67
2022/05/17 10:15:08;;;;;;;8.07;1.97;;;22.10;52.20;;;;;;4397699;28;658848;-67
2022/05/17 10:17:57;;;;;;;10.27;1.87;;;22.00;51.20;;;;;;4402513;28;657872;-67
2022/05/17 10:20:46;;;;;;;8.23;1.60;;;22.00;51.90;;;;;;4419300;28;659220;-67
2022/05/17 10:23:37;;;;;;;5.10;1.70;;;22.20;49.60;;;;;;4404808;28;658918;-67
2022/05/17 10:26:28;;;;;;;7.50;1.93;;;21.80;49.80;;;;;;4383742;28;658170;-67
2022/05/17 10:29:21;;;;;;;4.77;1.90;;;22.00;50.50;;;;;;4414171;28;657883;-67
2022/05/17 10:32:10;;;;;;;5.27;1.90;;;22.20;51.10;;;;;;4395167;28;658710;-68
2022/05/17 10:34:59;;;;;;;7.07;1.87;;;22.20;49.00;;;;;;4403202;28;659466;-67
2022/05/17 10:37:48;;;;;;;5.53;1.53;;;22.10;47.70;;;;;;4397523;28;658240;-67
2022/05/17 10:40:43;;;;;;;8.10;1.63;;;22.20;52.00;;;;;;4415301;28;658061;-67
2022/05/17 10:43:31;;;;;;;6.57;2.20;;;22.70;48.40;;;;;;4397058;28;657910;-67
2022/05/17 10:46:20;;;;;;;4.03;1.70;;;22.60;49.30;;;;;;4417173;28;658223;-67
2022/05/17 10:49:15;;;;;;;3.30;1.47;;;22.60;47.60;;;;;;4385329;28;658769;-67
2022/05/17 10:52:05;;;;;;;3.00;1.70;;;22.10;49.70;;;;;;4366831;28;658576;-67
2022/05/17 10:54:57;;;;;;;7.17;1.70;;;22.00;50.50;;;;;;4392808;28;658984;-67
2022/05/17 10:57:52;;;;;;;2.20;1.40;;;22.30;51.10;;;;;;4380793;28;657739;-67
2022/05/17 11:00:41;;;;;;;4.63;1.70;;;21.90;49.80;;;;;;4384299;28;657670;-67
2022/05/17 11:04:05;;;;;;;8.47;1.70;;;22.30;51.40;;;;;;4398223;28;658541;-68
2022/05/17 11:06:57;;;;;;;5.47;1.50;;;23.10;47.90;;;;;;4371522;28;657948;-67
2022/05/17 11:09:48;;;;;;;3.73;1.60;;;22.90;47.40;;;;;;4388539;28;657505;-67
2022/05/17 11:12:38;;;;;;;6.90;1.60;;;22.90;45.70;;;;;;4382647;28;657765;-67
2022/05/17 11:15:32;;;;;;;8.50;1.60;;;22.80;47.10;;;;;;4394068;28;658844;-67
2022/05/17 11:18:22;;;;;;;3.00;1.50;;;23.10;48.10;;;;;;4396145;28;657794;-67
2022/05/17 11:21:13;;;;;;;3.87;1.60;;;23.10;45.70;;;;;;4405606;28;657982;-67
2022/05/17 11:24:05;;;;;;;3.33;1.30;;;23.10;47.10;;;;;;4376125;28;657883;-67
2022/05/17 11:27:17;;;;;;;4.63;1.70;;;23.20;46.70;;;;;;4399727;28;658249;-68
2022/05/17 11:30:09;;;;;;;5.87;1.70;;;22.40;46.80;;;;;;4397447;28;658435;-68
2022/05/17 11:33:14;;;;;;;6.50;1.60;;;22.40;46.80;;;;;;4365278;28;659313;-67
2022/05/17 11:36:01;;;;;;;4.17;1.40;;;22.60;45.50;;;;;;4364653;28;658226;-67
2022/05/17 11:38:53;;;;;;;5.10;1.50;;;22.20;47.30;;;;;;4416909;28;657510;-67
2022/05/17 11:41:44;;;;;;;3.77;1.50;;;21.80;46.00;;;;;;4379927;28;657985;-67
2022/05/17 11:44:40;;;;;;;9.10;1.57;;;21.40;47.10;;;;;;4398083;28;658300;-67
2022/05/17 11:47:29;;;;;;;6.10;2.07;;;21.20;48.20;;;;;;4374417;28;657624;-67
2022/05/17 11:50:42;;;;;;;6.73;1.70;;;20.90;50.00;;;;;;4394902;28;657369;-67
2022/05/17 11:53:41;;;;;;;3.37;1.50;;;21.00;50.40;;;;;;4414211;28;657911;-67
2022/05/17 11:56:35;;;;;;;3.93;1.40;;;20.90;48.10;;;;;;4393579;28;658234;-66
2022/05/17 11:59:43;;;;;;;5.00;1.50;;;20.70;47.40;;;;;;4370321;28;657876;-67
2022/05/17 12:02:42;;;;;;;3.83;1.50;;;20.30;49.50;;;;;;4375583;28;658137;-67
2022/05/17 12:05:57;;;;;;;6.43;1.40;;;20.20;51.10;;;;;;4424502;28;658072;-67
2022/05/17 12:08:44;;;;;;;3.93;1.17;;;19.90;51.80;;;;;;4394081;28;657808;-67
2022/05/17 12:11:36;;;;;;;3.30;1.07;;;20.00;52.20;;;;;;4398783;28;658045;-67
2022/05/17 12:14:26;;;;;;;2.20;1.30;;;19.80;51.20;;;;;;4395997;28;657837;-67
2022/05/17 12:17:16;;;;;;;2.13;1.00;;;19.50;51.30;;;;;;4388452;28;659416;-67
2022/05/17 12:20:05;;;;;;;10.83;1.73;;;19.40;51.70;;;;;;4401829;28;658753;-67
2022/05/17 12:22:55;;;;;;;7.77;1.67;;;19.40;52.30;;;;;;4380144;28;659662;-67
2022/05/17 12:25:46;;;;;;;5.07;1.67;;;19.40;51.60;;;;;;4399413;28;658414;-67
2022/05/17 12:28:34;;;;;;;4.47;1.10;;;19.10;50.70;;;;;;4393011;28;658342;-66
2022/05/17 12:31:25;;;;;;;4.23;1.50;;;18.80;51.50;;;;;;4400352;28;657447;-67
2022/05/17 12:34:12;;;;;;;2.17;1.13;;;18.70;52.20;;;;;;4399049;28;659156;-67
2022/05/17 12:37:11;;;;;;;7.33;1.40;;;18.50;52.40;;;;;;4419076;28;657712;-66
2022/05/17 12:43:07;;;;;;;8.03;2.23;;;18.60;53.50;;;;;;4392519;28;657949;-67
2022/05/17 12:45:54;;;;;;;6.27;1.40;;;18.80;55.40;;;;;;4400716;28;659008;-67
2022/05/17 12:48:42;;;;;;;3.97;1.20;;;18.40;56.20;;;;;;4398964;28;658550;-67
2022/05/17 12:51:29;;;;;;;3.83;1.10;;;18.10;56.20;;;;;;4415188;28;657665;-67
2022/05/17 12:54:18;;;;;;;3.50;1.20;;;18.00;57.00;;;;;;4395800;28;658024;-66
2022/05/17 12:57:18;;;;;;;4.37;1.20;;;18.10;58.10;;;;;;4397555;28;658296;-67
2022/05/17 13:00:11;;;;;;;4.87;1.33;;;18.00;56.90;;;;;;4384167;28;657419;-66
2022/05/17 13:02:59;;;;;;;3.37;1.10;;;17.90;56.60;;;;;;4394076;28;657648;-67
2022/05/17 13:05:48;;;;;;;3.50;1.50;;;18.00;59.20;;;;;;4387666;28;658390;-67
2022/05/17 13:08:37;;;;;;;3.20;1.30;;;17.90;57.40;;;;;;4395625;28;657792;-66
2022/05/17 13:11:26;;;;;;;7.90;1.47;;;18.10;58.10;;;;;;4418589;28;658360;-67
2022/05/17 13:14:22;;;;;;;2.27;1.10;;;18.00;56.10;;;;;;4383059;28;658371;-66
2022/05/17 13:17:10;;;;;;;2.93;1.40;;;18.00;55.50;;;;;;4396642;28;657315;-67
2022/05/17 13:19:59;;;;;;;3.07;1.10;;;18.00;55.30;;;;;;4395382;28;658389;-67
2022/05/17 13:22:48;;;;;;;9.20;1.30;;;17.90;54.70;;;;;;4393247;28;657865;-67
2022/05/17 13:25:37;;;;;;;15.70;3.23;;;17.90;54.30;;;;;;4404558;28;658853;-66
2022/05/17 13:28:26;;;;;;;10.17;1.97;;;18.20;54.60;;;;;;4416940;28;659643;-67
2022/05/17 13:31:20;;;;;;;3.03;1.27;;;18.10;53.30;;;;;;4396451;28;659256;-66
2022/05/17 13:34:08;;;;;;;8.10;1.40;;;18.00;53.00;;;;;;4370582;28;658736;-66
2022/05/17 13:37:02;;;;;;;7.87;1.80;;;18.20;53.40;;;;;;4415939;28;657503;-67
2022/05/17 13:39:51;;;;;;;5.77;1.50;;;18.30;53.60;;;;;;4392940;28;657361;-66
2022/05/17 13:42:48;;;;;;;4.17;1.77;;;18.30;54.40;;;;;;4409887;28;658630;-67
2022/05/17 13:45:36;;;;;;;3.70;1.30;;;18.20;54.50;;;;;;4363664;28;657769;-66
2022/05/17 13:48:25;;;;;;;16.17;3.37;;;18.20;54.70;;;;;;4380367;28;658465;-67
2022/05/17 13:51:12;;;;;;;7.40;1.57;;;18.30;59.30;;;;;;4358540;28;658748;-67
2022/05/17 13:54:02;;;;;;;6.70;1.30;;;18.30;53.30;;;;;;4395208;28;657713;-66
2022/05/17 13:56:51;;;;;;;7.10;1.63;;;18.20;54.90;;;;;;4390854;28;657433;-66
2022/05/17 13:59:51;;;;;;;3.53;1.63;;;18.20;54.80;;;;;;4398804;28;658535;-67
2022/05/17 14:02:41;;;;;;;5.77;1.43;;;18.10;54.00;;;;;;4371544;28;657329;-67
2022/05/17 14:05:30;;;;;;;2.50;1.33;;;18.10;53.60;;;;;;4370820;28;658430;-67
2022/05/17 14:14:31;;;;;;;4.43;1.00;;;18.00;52.00;;;;;;4347358;28;659209;-66
2022/05/17 14:17:21;;;;;;;3.77;1.30;;;17.90;54.00;;;;;;4392570;28;659326;-67
2022/05/17 14:20:17;;;;;;;4.80;0.97;;;17.80;52.80;;;;;;4370553;28;658299;-67
2022/05/17 14:23:05;;;;;;;2.17;1.30;;;17.70;55.90;;;;;;4370161;28;657757;-67
2022/05/17 14:25:53;;;;;;;5.33;1.50;;;17.70;54.90;;;;;;4369781;28;658765;-67
2022/05/17 14:28:40;;;;;;;3.80;1.30;;;17.80;55.60;;;;;;4386760;28;658073;-66
2022/05/17 14:31:29;;;;;;;3.30;1.20;;;17.80;54.90;;;;;;4407975;28;658595;-67
2022/05/17 14:34:17;;;;;;;3.83;1.30;;;17.80;53.50;;;;;;4374345;28;657378;-66
2022/05/17 14:37:04;;;;;;;6.23;1.50;;;17.60;53.50;;;;;;4395878;28;658286;-66
2022/05/17 14:39:53;;;;;;;9.17;1.30;;;17.60;52.50;;;;;;4373935;28;658017;-66
2022/05/17 14:42:41;;;;;;;2.07;1.20;;;17.50;53.50;;;;;;4374405;28;657936;-66
2022/05/17 14:45:28;;;;;;;3.53;1.13;;;17.50;53.60;;;;;;4397005;28;659674;-67
2022/05/17 14:48:16;;;;;;;3.00;1.10;;;17.70;54.20;;;;;;4377405;28;657586;-67
2022/05/17 14:51:05;;;;;;;1.90;1.20;;;17.70;53.60;;;;;;4395501;28;658830;-67
2022/05/17 14:53:52;;;;;;;5.60;1.30;;;17.70;52.80;;;;;;4373572;28;658809;-67